sensor_id;sensor_type;location;lat;lon;timestamp;pressure;altitude;pressure_sealevel;temperature;humidity
818;BME280;391;51.052;6.954;2022-09-09T00:01:38;100386.06;;;19.09;75.31
818;BME280;391;51.052;6.954;2022-09-09T00:03:52;100395.72;;;19.13;76.25
818;BME280;391;51.052;6.954;2022-09-09T00:06:03;100391.38;;;19.06;75.64
818;BME280;391;51.052;6.954;2022-09-09T00:08:15;100391.47;;;19.01;76.19
818;BME280;391;51.052;6.954;2022-09-09T00:10:26;100383.59;;;18.92;76.24
818;BME280;391;51.052;6.954;2022-09-09T00:12:36;100377.53;;;18.84;76.53
818;BME280;391;51.052;6.954;2022-09-09T00:14:48;100376.53;;;18.96;76.81
818;BME280;391;51.052;6.954;2022-09-09T00:16:56;100363.22;;;19.02;75.48
818;BME280;391;51.052;6.954;2022-09-09T00:19:05;100364.16;;;18.99;76.02
818;BME280;391;51.052;6.954;2022-09-09T00:21:13;100372.22;;;18.89;76.51
818;BME280;391;51.052;6.954;2022-09-09T00:23:24;100360.03;;;18.74;76.46
818;BME280;391;51.052;6.954;2022-09-09T00:25:33;100370.72;;;18.62;76.76
818;BME280;391;51.052;6.954;2022-09-09T00:27:42;100374.28;;;18.58;76.87
818;BME280;391;51.052;6.954;2022-09-09T00:29:53;100348.03;;;18.40;76.72
818;BME280;391;51.052;6.954;2022-09-09T00:32:05;100354.19;;;18.39;76.83
818;BME280;391;51.052;6.954;2022-09-09T00:34:13;100372.59;;;18.46;76.46
818;BME280;391;51.052;6.954;2022-09-09T00:36:21;100375.22;;;18.48;76.19
818;BME280;391;51.052;6.954;2022-09-09T00:38:28;100379.59;;;18.57;76.19
818;BME280;391;51.052;6.954;2022-09-09T00:40:41;100377.72;;;18.65;75.31
818;BME280;391;51.052;6.954;2022-09-09T00:42:54;100367.09;;;18.71;75.38
818;BME280;391;51.052;6.954;2022-09-09T00:45:15;100372.28;;;18.81;74.52
818;BME280;391;51.052;6.954;2022-09-09T00:47:41;100377.47;;;18.90;74.46
818;BME280;391;51.052;6.954;2022-09-09T00:49:57;100369.53;;;18.90;74.28
818;BME280;391;51.052;6.954;2022-09-09T00:52:12;100375.78;;;18.85;73.68
818;BME280;391;51.052;6.954;2022-09-09T00:54:33;100380.25;;;18.78;73.25
818;BME280;391;51.052;6.954;2022-09-09T00:56:43;100379.44;;;18.70;73.08
818;BME280;391;51.052;6.954;2022-09-09T00:58:52;100374.28;;;18.60;73.16
818;BME280;391;51.052;6.954;2022-09-09T01:01:04;100378.56;;;18.71;73.50
818;BME280;391;51.052;6.954;2022-09-09T01:03:31;100373.13;;;18.85;72.88
818;BME280;391;51.052;6.954;2022-09-09T01:05:42;100374.81;;;18.92;72.08
818;BME280;391;51.052;6.954;2022-09-09T01:07:49;100367.78;;;18.91;71.93
818;BME280;391;51.052;6.954;2022-09-09T01:10:00;100368.56;;;18.99;71.91
818;BME280;391;51.052;6.954;2022-09-09T01:12:11;100369.38;;;19.06;72.24
818;BME280;391;51.052;6.954;2022-09-09T01:14:29;100352.66;;;19.03;71.65
818;BME280;391;51.052;6.954;2022-09-09T01:16:37;100370.13;;;19.17;72.17
818;BME280;391;51.052;6.954;2022-09-09T01:18:47;100370.94;;;19.23;72.61
818;BME280;391;51.052;6.954;2022-09-09T01:20:58;100376.13;;;19.28;73.09
818;BME280;391;51.052;6.954;2022-09-09T01:23:19;100376.19;;;19.26;72.44
818;BME280;391;51.052;6.954;2022-09-09T01:26:09;100375.41;;;19.17;72.62
818;BME280;391;51.052;6.954;2022-09-09T01:28:17;100375.41;;;19.17;72.29
818;BME280;391;51.052;6.954;2022-09-09T01:30:26;100374.50;;;19.18;72.64
818;BME280;391;51.052;6.954;2022-09-09T01:32:40;100378.09;;;19.14;72.06
818;BME280;391;51.052;6.954;2022-09-09T01:34:45;100377.25;;;19.10;72.26
818;BME280;391;51.052;6.954;2022-09-09T01:36:51;100373.84;;;18.99;71.12
818;BME280;391;51.052;6.954;2022-09-09T01:38:59;100376.53;;;18.96;70.65
818;BME280;391;51.052;6.954;2022-09-09T01:41:03;100373.31;;;18.67;69.19
818;BME280;391;51.052;6.954;2022-09-09T01:43:29;100376.13;;;18.47;69.94
818;BME280;391;51.052;6.954;2022-09-09T01:45:33;100377.13;;;18.34;69.64
818;BME280;391;51.052;6.954;2022-09-09T01:47:37;100367.53;;;18.21;70.13
818;BME280;391;51.052;6.954;2022-09-09T01:49:53;100370.25;;;18.12;70.59
818;BME280;391;51.052;6.954;2022-09-09T01:52:01;100372.84;;;18.18;70.44
818;BME280;391;51.052;6.954;2022-09-09T01:54:09;100378.06;;;18.22;70.08
818;BME280;391;51.052;6.954;2022-09-09T01:56:21;100375.53;;;18.15;70.36
818;BME280;391;51.052;6.954;2022-09-09T01:58:35;100375.50;;;18.16;70.53
818;BME280;391;51.052;6.954;2022-09-09T02:00:44;100378.19;;;18.12;70.90
818;BME280;391;51.052;6.954;2022-09-09T02:02:57;100360.63;;;18.09;70.82
818;BME280;391;51.052;6.954;2022-09-09T02:05:27;100375.59;;;18.04;70.71
818;BME280;391;51.052;6.954;2022-09-09T02:07:39;100387.06;;;17.98;71.11
818;BME280;391;51.052;6.954;2022-09-09T02:10:00;100381.00;;;17.84;71.85
818;BME280;391;51.052;6.954;2022-09-09T02:12:09;100376.53;;;17.95;71.63
818;BME280;391;51.052;6.954;2022-09-09T02:14:25;100384.41;;;18.02;71.42
818;BME280;391;51.052;6.954;2022-09-09T02:16:36;100380.00;;;18.02;71.44
818;BME280;391;51.052;6.954;2022-09-09T02:18:46;100377.28;;;18.10;71.42
818;BME280;391;51.052;6.954;2022-09-09T02:20:55;100374.66;;;18.11;71.37
818;BME280;391;51.052;6.954;2022-09-09T02:23:00;100374.81;;;17.91;71.61
818;BME280;391;51.052;6.954;2022-09-09T02:25:07;100368.72;;;17.83;72.35
818;BME280;391;51.052;6.954;2022-09-09T02:27:13;100342.34;;;17.82;71.99
818;BME280;391;51.052;6.954;2022-09-09T02:29:23;100364.16;;;18.05;71.78
818;BME280;391;51.052;6.954;2022-09-09T02:31:28;100366.75;;;18.07;72.14
818;BME280;391;51.052;6.954;2022-09-09T02:33:39;100368.47;;;18.18;71.52
818;BME280;391;51.052;6.954;2022-09-09T02:35:46;100353.53;;;18.13;71.10
818;BME280;391;51.052;6.954;2022-09-09T02:37:56;100372.06;;;18.04;71.56
818;BME280;391;51.052;6.954;2022-09-09T02:40:02;100366.81;;;18.02;71.90
818;BME280;391;51.052;6.954;2022-09-09T02:42:07;100371.19;;;18.03;72.10
818;BME280;391;51.052;6.954;2022-09-09T02:44:13;100353.69;;;17.91;71.96
818;BME280;391;51.052;6.954;2022-09-09T02:46:31;100366.91;;;17.90;72.35
818;BME280;391;51.052;6.954;2022-09-09T02:48:44;100368.66;;;17.92;72.58
818;BME280;391;51.052;6.954;2022-09-09T02:50:56;100350.19;;;17.92;72.42
818;BME280;391;51.052;6.954;2022-09-09T02:53:11;100362.31;;;18.15;72.30
818;BME280;391;51.052;6.954;2022-09-09T02:55:24;100352.72;;;18.05;71.60
818;BME280;391;51.052;6.954;2022-09-09T02:57:34;100376.44;;;18.08;72.07
818;BME280;391;51.052;6.954;2022-09-09T02:59:40;100373.03;;;17.95;72.28
818;BME280;391;51.052;6.954;2022-09-09T03:01:45;100367.72;;;18.00;72.75
818;BME280;391;51.052;6.954;2022-09-09T03:03:49;100366.78;;;18.08;72.23
818;BME280;391;51.052;6.954;2022-09-09T03:05:53;100365.00;;;18.09;72.25
818;BME280;391;51.052;6.954;2022-09-09T03:07:56;100366.72;;;18.14;71.98
818;BME280;391;51.052;6.954;2022-09-09T03:10:00;100371.97;;;18.16;71.78
818;BME280;391;51.052;6.954;2022-09-09T03:12:04;100359.66;;;18.18;71.81
818;BME280;391;51.052;6.954;2022-09-09T03:14:09;100363.19;;;18.17;71.80
818;BME280;391;51.052;6.954;2022-09-09T03:16:13;100355.28;;;18.15;72.15
818;BME280;391;51.052;6.954;2022-09-09T03:18:22;100357.91;;;18.18;71.96
818;BME280;391;51.052;6.954;2022-09-09T03:20:29;100352.66;;;18.14;72.41
818;BME280;391;51.052;6.954;2022-09-09T03:22:33;100356.22;;;18.08;72.25
818;BME280;391;51.052;6.954;2022-09-09T03:24:37;100350.09;;;18.03;72.52
818;BME280;391;51.052;6.954;2022-09-09T03:26:41;100350.06;;;18.09;72.47
818;BME280;391;51.052;6.954;2022-09-09T03:28:49;100355.31;;;18.12;72.46
818;BME280;391;51.052;6.954;2022-09-09T03:30:58;100330.81;;;17.95;72.06
818;BME280;391;51.052;6.954;2022-09-09T03:33:01;100353.56;;;18.07;72.07
818;BME280;391;51.052;6.954;2022-09-09T03:35:09;100350.06;;;18.09;72.14
818;BME280;391;51.052;6.954;2022-09-09T03:37:12;100360.63;;;18.09;72.07
818;BME280;391;51.052;6.954;2022-09-09T03:39:16;100352.75;;;18.02;72.37
818;BME280;391;51.052;6.954;2022-09-09T03:41:19;100356.22;;;18.07;72.44
818;BME280;391;51.052;6.954;2022-09-09T03:43:27;100357.06;;;18.12;72.21
818;BME280;391;51.052;6.954;2022-09-09T03:45:31;100356.25;;;18.05;72.27
818;BME280;391;51.052;6.954;2022-09-09T03:47:35;100356.25;;;18.01;72.35
818;BME280;391;51.052;6.954;2022-09-09T03:49:40;100359.78;;;18.01;72.62
818;BME280;391;51.052;6.954;2022-09-09T03:51:45;100351.84;;;18.06;72.18
818;BME280;391;51.052;6.954;2022-09-09T03:53:49;100358.03;;;18.02;72.55
818;BME280;391;51.052;6.954;2022-09-09T03:55:54;100356.25;;;18.04;72.45
818;BME280;391;51.052;6.954;2022-09-09T03:58:00;100350.91;;;18.10;72.56
818;BME280;391;51.052;6.954;2022-09-09T04:00:05;100352.75;;;18.02;72.79
818;BME280;391;51.052;6.954;2022-09-09T04:02:20;100352.78;;;17.97;73.05
818;BME280;391;51.052;6.954;2022-09-09T04:04:23;100355.38;;;18.05;72.99
818;BME280;391;51.052;6.954;2022-09-09T04:06:28;100360.59;;;18.06;73.11
818;BME280;391;51.052;6.954;2022-09-09T04:08:34;100357.13;;;18.06;73.01
818;BME280;391;51.052;6.954;2022-09-09T04:10:39;100316.91;;;17.72;73.50
818;BME280;391;51.052;6.954;2022-09-09T04:12:42;100357.09;;;18.07;73.45
818;BME280;391;51.052;6.954;2022-09-09T04:14:55;100357.06;;;18.10;73.23
818;BME280;391;51.052;6.954;2022-09-09T04:17:04;100358.88;;;18.04;73.51
818;BME280;391;51.052;6.954;2022-09-09T04:19:09;100351.00;;;17.99;73.53
818;BME280;391;51.052;6.954;2022-09-09T04:21:16;100355.44;;;17.95;73.66
818;BME280;391;51.052;6.954;2022-09-09T04:23:20;100351.06;;;17.93;73.96
818;BME280;391;51.052;6.954;2022-09-09T04:25:25;100351.88;;;18.03;73.72
818;BME280;391;51.052;6.954;2022-09-09T04:27:28;100351.00;;;18.02;73.86
818;BME280;391;51.052;6.954;2022-09-09T04:29:32;100347.41;;;18.08;73.53
818;BME280;391;51.052;6.954;2022-09-09T04:31:36;100350.03;;;18.12;73.19
818;BME280;391;51.052;6.954;2022-09-09T04:33:44;100343.84;;;18.15;72.99
818;BME280;391;51.052;6.954;2022-09-09T04:35:49;100352.69;;;18.12;73.23
818;BME280;391;51.052;6.954;2022-09-09T04:37:57;100359.75;;;18.06;73.47
818;BME280;391;51.052;6.954;2022-09-09T04:40:02;100357.16;;;18.03;73.61
818;BME280;391;51.052;6.954;2022-09-09T04:42:08;100358.03;;;17.97;73.96
818;BME280;391;51.052;6.954;2022-09-09T04:44:11;100359.78;;;18.01;74.18
818;BME280;391;51.052;6.954;2022-09-09T04:46:15;100269.59;;;17.48;74.00
818;BME280;391;51.052;6.954;2022-09-09T04:48:20;100357.09;;;18.09;73.61
818;BME280;391;51.052;6.954;2022-09-09T04:50:24;100364.13;;;18.08;74.05
818;BME280;391;51.052;6.954;2022-09-09T04:52:33;100358.81;;;18.10;73.82
818;BME280;391;51.052;6.954;2022-09-09T04:54:37;100359.72;;;18.12;73.87
818;BME280;391;51.052;6.954;2022-09-09T04:56:41;100365.94;;;18.02;74.42
818;BME280;391;51.052;6.954;2022-09-09T04:58:47;100366.00;;;17.95;74.44
818;BME280;391;51.052;6.954;2022-09-09T05:00:51;100361.59;;;17.94;74.57
818;BME280;391;51.052;6.954;2022-09-09T05:02:55;100364.25;;;17.93;74.62
818;BME280;391;51.052;6.954;2022-09-09T05:04:59;100359.84;;;17.92;74.58
818;BME280;391;51.052;6.954;2022-09-09T05:07:03;100361.56;;;17.99;74.42
818;BME280;391;51.052;6.954;2022-09-09T05:09:06;100364.19;;;18.01;74.60
818;BME280;391;51.052;6.954;2022-09-09T05:11:15;100360.66;;;18.00;74.25
818;BME280;391;51.052;6.954;2022-09-09T05:13:19;100354.53;;;17.93;74.18
818;BME280;391;51.052;6.954;2022-09-09T05:15:24;100358.97;;;17.93;74.12
818;BME280;391;51.052;6.954;2022-09-09T05:17:27;100357.22;;;17.92;74.41
818;BME280;391;51.052;6.954;2022-09-09T05:19:31;100363.41;;;17.89;74.35
818;BME280;391;51.052;6.954;2022-09-09T05:21:34;100361.63;;;17.88;74.69
818;BME280;391;51.052;6.954;2022-09-09T05:23:38;100363.38;;;17.92;74.54
818;BME280;391;51.052;6.954;2022-09-09T05:25:41;100356.34;;;17.91;74.55
818;BME280;391;51.052;6.954;2022-09-09T05:27:45;100360.72;;;17.91;74.42
818;BME280;391;51.052;6.954;2022-09-09T05:29:49;100337.09;;;17.80;74.74
818;BME280;391;51.052;6.954;2022-09-09T05:31:54;100352.88;;;17.86;74.93
818;BME280;391;51.052;6.954;2022-09-09T05:33:57;100347.59;;;17.85;75.07
818;BME280;391;51.052;6.954;2022-09-09T05:36:02;100355.50;;;17.86;75.18
818;BME280;391;51.052;6.954;2022-09-09T05:38:06;100359.00;;;17.88;75.27
818;BME280;391;51.052;6.954;2022-09-09T05:40:10;100363.38;;;17.88;75.25
818;BME280;391;51.052;6.954;2022-09-09T05:42:15;100349.34;;;17.84;75.60
818;BME280;391;51.052;6.954;2022-09-09T05:44:19;100362.53;;;17.84;75.88
818;BME280;391;51.052;6.954;2022-09-09T05:46:23;100361.69;;;17.78;75.51
818;BME280;391;51.052;6.954;2022-09-09T05:48:30;100359.09;;;17.76;75.73
818;BME280;391;51.052;6.954;2022-09-09T05:50:34;100367.00;;;17.76;75.53
818;BME280;391;51.052;6.954;2022-09-09T05:52:37;100367.03;;;17.69;75.90
818;BME280;391;51.052;6.954;2022-09-09T05:54:42;100368.81;;;17.62;76.04
818;BME280;391;51.052;6.954;2022-09-09T05:56:45;100374.09;;;17.62;76.16
818;BME280;391;51.052;6.954;2022-09-09T05:58:55;100362.72;;;17.51;76.02
818;BME280;391;51.052;6.954;2022-09-09T06:01:03;100366.22;;;17.53;76.22
818;BME280;391;51.052;6.954;2022-09-09T06:03:10;100369.72;;;17.52;76.33
818;BME280;391;51.052;6.954;2022-09-09T06:05:15;100374.13;;;17.53;76.58
818;BME280;391;51.052;6.954;2022-09-09T06:07:19;100367.97;;;17.53;76.34
818;BME280;391;51.052;6.954;2022-09-09T06:09:22;100351.28;;;17.49;76.54
818;BME280;391;51.052;6.954;2022-09-09T06:11:27;100360.06;;;17.54;76.40
818;BME280;391;51.052;6.954;2022-09-09T06:13:34;100359.19;;;17.55;76.11
818;BME280;391;51.052;6.954;2022-09-09T06:15:49;100365.34;;;17.60;75.96
818;BME280;391;51.052;6.954;2022-09-09T06:17:54;100372.38;;;17.54;76.21
818;BME280;391;51.052;6.954;2022-09-09T06:19:58;100370.63;;;17.56;76.35
818;BME280;391;51.052;6.954;2022-09-09T06:22:03;100368.78;;;17.68;76.22
818;BME280;391;51.052;6.954;2022-09-09T06:24:09;100355.66;;;17.62;76.12
818;BME280;391;51.052;6.954;2022-09-09T06:26:18;100361.81;;;17.60;75.51
818;BME280;391;51.052;6.954;2022-09-09T06:28:23;100382.00;;;17.64;75.86
818;BME280;391;51.052;6.954;2022-09-09T06:30:27;100374.97;;;17.66;75.91
818;BME280;391;51.052;6.954;2022-09-09T06:32:32;100369.72;;;17.63;75.87
818;BME280;391;51.052;6.954;2022-09-09T06:34:36;100372.31;;;17.70;75.71
818;BME280;391;51.052;6.954;2022-09-09T06:36:40;100374.09;;;17.67;75.65
818;BME280;391;51.052;6.954;2022-09-09T06:38:45;100377.53;;;17.75;75.53
818;BME280;391;51.052;6.954;2022-09-09T06:40:52;100375.78;;;17.77;75.42
818;BME280;391;51.052;6.954;2022-09-09T06:42:59;100372.25;;;17.79;74.83
818;BME280;391;51.052;6.954;2022-09-09T06:45:10;100370.50;;;17.75;73.32
818;BME280;391;51.052;6.954;2022-09-09T06:47:22;100366.09;;;17.74;73.28
818;BME280;391;51.052;6.954;2022-09-09T06:49:27;100367.78;;;17.89;72.17
818;BME280;391;51.052;6.954;2022-09-09T06:51:33;100372.19;;;17.88;72.37
818;BME280;391;51.052;6.954;2022-09-09T06:53:39;100372.16;;;17.96;72.03
818;BME280;391;51.052;6.954;2022-09-09T06:55:46;100374.72;;;18.01;72.25
818;BME280;391;51.052;6.954;2022-09-09T06:57:50;100377.31;;;18.11;72.26
818;BME280;391;51.052;6.954;2022-09-09T06:59:58;100375.50;;;18.18;71.15
818;BME280;391;51.052;6.954;2022-09-09T07:02:01;100365.81;;;18.17;70.71
818;BME280;391;51.052;6.954;2022-09-09T07:04:06;100375.47;;;18.19;70.55
818;BME280;391;51.052;6.954;2022-09-09T07:06:14;100378.84;;;18.35;70.69
818;BME280;391;51.052;6.954;2022-09-09T07:08:20;100381.47;;;18.41;70.20
818;BME280;391;51.052;6.954;2022-09-09T07:10:24;100378.81;;;18.41;69.52
818;BME280;391;51.052;6.954;2022-09-09T07:12:29;100365.66;;;18.36;70.10
818;BME280;391;51.052;6.954;2022-09-09T07:14:34;100370.06;;;18.37;69.73
818;BME280;391;51.052;6.954;2022-09-09T07:16:43;100369.06;;;18.47;69.42
818;BME280;391;51.052;6.954;2022-09-09T07:18:48;100380.38;;;18.65;69.29
818;BME280;391;51.052;6.954;2022-09-09T07:20:53;100378.66;;;18.62;68.44
818;BME280;391;51.052;6.954;2022-09-09T07:22:59;100378.72;;;18.48;68.00
818;BME280;391;51.052;6.954;2022-09-09T07:25:04;100388.44;;;18.49;68.43
818;BME280;391;51.052;6.954;2022-09-09T07:27:08;100377.66;;;18.72;68.11
818;BME280;391;51.052;6.954;2022-09-09T07:29:13;100384.63;;;18.82;67.53
818;BME280;391;51.052;6.954;2022-09-09T07:31:24;100391.69;;;18.77;67.13
818;BME280;391;51.052;6.954;2022-09-09T07:33:29;100390.06;;;18.66;66.91
818;BME280;391;51.052;6.954;2022-09-09T07:35:33;100397.94;;;18.69;66.76
818;BME280;391;51.052;6.954;2022-09-09T07:37:37;100395.34;;;18.66;67.40
818;BME280;391;51.052;6.954;2022-09-09T07:39:40;100401.41;;;18.75;67.14
818;BME280;391;51.052;6.954;2022-09-09T07:41:45;100397.75;;;18.88;66.89
818;BME280;391;51.052;6.954;2022-09-09T07:43:52;100399.38;;;18.98;66.46
818;BME280;391;51.052;6.954;2022-09-09T07:45:59;100396.88;;;18.88;65.37
818;BME280;391;51.052;6.954;2022-09-09T07:48:05;100403.94;;;18.87;64.82
818;BME280;391;51.052;6.954;2022-09-09T07:50:10;100403.94;;;18.86;64.78
818;BME280;391;51.052;6.954;2022-09-09T07:52:13;100415.47;;;18.79;64.86
818;BME280;391;51.052;6.954;2022-09-09T07:54:23;100395.28;;;18.72;65.29
818;BME280;391;51.052;6.954;2022-09-09T07:56:29;100404.63;;;19.05;65.21
818;BME280;391;51.052;6.954;2022-09-09T07:58:36;100417.03;;;18.96;64.55
818;BME280;391;51.052;6.954;2022-09-09T08:00:40;100404.75;;;18.92;64.61
818;BME280;391;51.052;6.954;2022-09-09T08:02:47;100405.56;;;19.00;63.83
818;BME280;391;51.052;6.954;2022-09-09T08:04:50;100415.31;;;18.92;64.44
818;BME280;391;51.052;6.954;2022-09-09T08:06:58;100402.03;;;18.98;64.20
818;BME280;391;51.052;6.954;2022-09-09T08:09:03;100408.16;;;19.03;63.99
818;BME280;391;51.052;6.954;2022-09-09T08:11:10;100406.34;;;19.07;63.86
818;BME280;391;51.052;6.954;2022-09-09T08:13:14;100417.91;;;18.97;63.90
818;BME280;391;51.052;6.954;2022-09-09T08:15:20;100414.56;;;18.80;63.07
818;BME280;391;51.052;6.954;2022-09-09T08:17:24;100408.41;;;18.78;63.15
818;BME280;391;51.052;6.954;2022-09-09T08:19:29;100416.28;;;18.85;62.58
818;BME280;391;51.052;6.954;2022-09-09T08:21:36;100406.53;;;18.90;62.76
818;BME280;391;51.052;6.954;2022-09-09T08:23:41;100406.47;;;18.96;62.37
818;BME280;391;51.052;6.954;2022-09-09T08:25:45;100395.97;;;18.90;61.20
818;BME280;391;51.052;6.954;2022-09-09T08:27:52;100409.09;;;18.96;61.68
818;BME280;391;51.052;6.954;2022-09-09T08:29:56;100405.50;;;19.02;60.96
818;BME280;391;51.052;6.954;2022-09-09T08:32:00;100402.09;;;18.94;60.40
818;BME280;391;51.052;6.954;2022-09-09T08:34:05;100409.13;;;18.95;60.63
818;BME280;391;51.052;6.954;2022-09-09T08:36:12;100379.38;;;18.79;60.33
818;BME280;391;51.052;6.954;2022-09-09T08:38:17;100410.94;;;18.91;60.63
818;BME280;391;51.052;6.954;2022-09-09T08:40:26;100410.84;;;18.99;60.67
818;BME280;391;51.052;6.954;2022-09-09T08:42:38;100404.56;;;19.09;60.59
818;BME280;391;51.052;6.954;2022-09-09T08:45:03;100408.84;;;19.21;59.77
818;BME280;391;51.052;6.954;2022-09-09T08:47:18;100420.31;;;19.18;59.83
818;BME280;391;51.052;6.954;2022-09-09T08:49:47;100416.84;;;19.13;59.49
818;BME280;391;51.052;6.954;2022-09-09T08:51:57;100426.59;;;19.10;59.63
818;BME280;391;51.052;6.954;2022-09-09T08:54:02;100415.16;;;19.08;60.20
818;BME280;391;51.052;6.954;2022-09-09T08:56:11;100380.19;;;18.83;59.89
818;BME280;391;51.052;6.954;2022-09-09T08:58:22;100423.03;;;19.12;59.35
818;BME280;391;51.052;6.954;2022-09-09T09:00:35;100428.25;;;19.18;58.50
818;BME280;391;51.052;6.954;2022-09-09T09:02:48;100423.81;;;19.22;59.03
818;BME280;391;51.052;6.954;2022-09-09T09:05:08;100415.72;;;19.34;58.73
818;BME280;391;51.052;6.954;2022-09-09T09:07:28;100428.00;;;19.39;58.04
818;BME280;391;51.052;6.954;2022-09-09T09:09:42;100422.66;;;19.47;57.49
818;BME280;391;51.052;6.954;2022-09-09T09:11:49;100426.28;;;19.40;57.31
818;BME280;391;51.052;6.954;2022-09-09T09:13:56;100437.72;;;19.42;57.64
818;BME280;391;51.052;6.954;2022-09-09T09:16:10;100394.59;;;19.32;56.78
818;BME280;391;51.052;6.954;2022-09-09T09:18:17;100434.06;;;19.52;56.55
818;BME280;391;51.052;6.954;2022-09-09T09:20:26;100422.53;;;19.58;55.28
818;BME280;391;51.052;6.954;2022-09-09T09:22:44;100437.56;;;19.56;54.88
818;BME280;391;51.052;6.954;2022-09-09T09:24:53;100418.88;;;19.68;55.29
818;BME280;391;51.052;6.954;2022-09-09T09:27:01;100424.91;;;19.76;54.97
818;BME280;391;51.052;6.954;2022-09-09T09:29:13;100424.13;;;19.69;54.96
818;BME280;391;51.052;6.954;2022-09-09T09:31:19;100421.56;;;19.65;54.79
818;BME280;391;51.052;6.954;2022-09-09T09:33:27;100426.94;;;19.59;55.14
818;BME280;391;51.052;6.954;2022-09-09T09:35:33;100419.78;;;19.65;54.69
818;BME280;391;51.052;6.954;2022-09-09T09:37:45;100427.78;;;19.62;55.30
818;BME280;391;51.052;6.954;2022-09-09T09:40:11;100422.34;;;19.70;55.50
818;BME280;391;51.052;6.954;2022-09-09T09:42:17;100426.94;;;19.57;55.37
818;BME280;391;51.052;6.954;2022-09-09T09:44:27;100421.63;;;19.59;54.77
818;BME280;391;51.052;6.954;2022-09-09T09:46:37;100429.56;;;19.59;55.38
818;BME280;391;51.052;6.954;2022-09-09T09:48:56;100430.38;;;19.65;55.77
818;BME280;391;51.052;6.954;2022-09-09T09:51:05;100436.63;;;19.57;55.82
818;BME280;391;51.052;6.954;2022-09-09T09:53:21;100430.38;;;19.65;56.39
818;BME280;391;51.052;6.954;2022-09-09T09:55:28;100406.66;;;19.58;56.39
818;BME280;391;51.052;6.954;2022-09-09T09:57:34;100443.84;;;19.45;57.21
818;BME280;391;51.052;6.954;2022-09-09T09:59:43;100432.41;;;19.42;57.50
818;BME280;391;51.052;6.954;2022-09-09T10:01:52;100432.38;;;19.45;57.72
818;BME280;391;51.052;6.954;2022-09-09T10:03:59;100437.47;;;19.60;57.57
818;BME280;391;51.052;6.954;2022-09-09T10:06:05;100436.50;;;19.69;57.33
818;BME280;391;51.052;6.954;2022-09-09T10:08:12;100441.78;;;19.67;57.35
818;BME280;391;51.052;6.954;2022-09-09T10:10:21;100431.13;;;19.73;57.36
818;BME280;391;51.052;6.954;2022-09-09T10:12:37;100431.69;;;19.96;57.46
818;BME280;391;51.052;6.954;2022-09-09T10:14:58;100429.00;;;19.98;56.53
818;BME280;391;51.052;6.954;2022-09-09T10:17:15;100430.78;;;19.99;56.73
818;BME280;391;51.052;6.954;2022-09-09T10:19:29;100415.72;;;20.01;56.85
818;BME280;391;51.052;6.954;2022-09-09T10:21:59;100422.59;;;20.16;56.09
818;BME280;391;51.052;6.954;2022-09-09T10:24:21;100428.72;;;20.18;55.24
818;BME280;391;51.052;6.954;2022-09-09T10:26:38;100425.19;;;20.17;55.25
818;BME280;391;51.052;6.954;2022-09-09T10:28:57;100407.38;;;20.30;55.37
818;BME280;391;51.052;6.954;2022-09-09T10:31:14;100428.34;;;20.45;54.95
818;BME280;391;51.052;6.954;2022-09-09T10:33:28;100422.53;;;20.19;55.20
818;BME280;391;51.052;6.954;2022-09-09T10:35:41;100418.28;;;20.10;56.25
818;BME280;391;51.052;6.954;2022-09-09T10:38:08;100415.47;;;20.18;55.48
818;BME280;391;51.052;6.954;2022-09-09T10:40:26;100421.44;;;20.35;55.51
818;BME280;391;51.052;6.954;2022-09-09T10:42:33;100405.41;;;20.42;55.31
818;BME280;391;51.052;6.954;2022-09-09T10:44:49;100416.97;;;20.37;55.14
818;BME280;391;51.052;6.954;2022-09-09T10:47:15;100415.31;;;20.31;55.15
818;BME280;391;51.052;6.954;2022-09-09T10:49:44;100411.03;;;20.21;55.25
818;BME280;391;51.052;6.954;2022-09-09T10:51:57;100419.00;;;20.20;55.53
818;BME280;391;51.052;6.954;2022-09-09T10:54:12;100404.25;;;20.02;55.99
818;BME280;391;51.052;6.954;2022-09-09T10:56:20;100418.91;;;20.27;55.68
818;BME280;391;51.052;6.954;2022-09-09T10:58:29;100422.00;;;20.52;54.53
818;BME280;391;51.052;6.954;2022-09-09T11:00:39;100415.91;;;20.99;54.20
818;BME280;391;51.052;6.954;2022-09-09T11:02:43;100417.22;;;21.23;52.87
818;BME280;391;51.052;6.954;2022-09-09T11:04:51;100403.25;;;21.13;52.95
818;BME280;391;51.052;6.954;2022-09-09T11:07:00;100405.53;;;20.85;53.11
818;BME280;391;51.052;6.954;2022-09-09T11:09:16;100408.25;;;20.82;53.97
818;BME280;391;51.052;6.954;2022-09-09T11:11:26;100397.06;;;20.65;54.06
818;BME280;391;51.052;6.954;2022-09-09T11:13:37;100406.47;;;20.81;54.32
818;BME280;391;51.052;6.954;2022-09-09T11:15:45;100411.84;;;20.78;53.39
818;BME280;391;51.052;6.954;2022-09-09T11:17:52;100401.59;;;20.58;53.64
818;BME280;391;51.052;6.954;2022-09-09T11:19:57;100400.69;;;20.59;54.22
818;BME280;391;51.052;6.954;2022-09-09T11:22:02;100381.63;;;20.39;54.54
818;BME280;391;51.052;6.954;2022-09-09T11:24:15;100399.97;;;20.51;55.26
818;BME280;391;51.052;6.954;2022-09-09T11:26:29;100399.94;;;20.53;54.86
818;BME280;391;51.052;6.954;2022-09-09T11:28:52;100400.16;;;20.39;54.71
818;BME280;391;51.052;6.954;2022-09-09T11:31:21;100387.00;;;20.35;54.78
818;BME280;391;51.052;6.954;2022-09-09T11:33:51;100396.16;;;20.11;55.74
818;BME280;391;51.052;6.954;2022-09-09T11:36:28;100391.00;;;20.03;55.70
818;BME280;391;51.052;6.954;2022-09-09T11:38:39;100409.59;;;20.00;54.23
818;BME280;391;51.052;6.954;2022-09-09T11:40:45;100393.63;;;20.06;54.57
818;BME280;391;51.052;6.954;2022-09-09T11:43:01;100379.41;;;20.12;54.23
818;BME280;391;51.052;6.954;2022-09-09T11:45:20;100395.94;;;20.29;53.14
818;BME280;391;51.052;6.954;2022-09-09T11:47:27;100393.19;;;20.35;53.77
818;BME280;391;51.052;6.954;2022-09-09T11:49:41;100393.84;;;20.48;53.48
818;BME280;391;51.052;6.954;2022-09-09T11:51:45;100399.94;;;20.53;52.67